sensor_id;sensor_type;location;lat;lon;timestamp;temperature;humidity
36660;DHT22;22654;51.054;3.654;2023-03-14T00:00:53;10.60;99.90
36660;DHT22;22654;51.054;3.654;2023-03-14T00:03:18;10.50;99.90
36660;DHT22;22654;51.054;3.654;2023-03-14T00:05:44;10.50;99.90
36660;DHT22;22654;51.054;3.654;2023-03-14T00:08:10;10.50;99.90
36660;DHT22;22654;51.054;3.654;2023-03-14T00:10:37;10.40;99.90
36660;DHT22;22654;51.054;3.654;2023-03-14T00:13:03;10.30;99.90
36660;DHT22;22654;51.054;3.654;2023-03-14T00:15:28;10.30;99.90
36660;DHT22;22654;51.054;3.654;2023-03-14T00:17:54;10.40;99.90
36660;DHT22;22654;51.054;3.654;2023-03-14T00:20:20;10.40;99.90
36660;DHT22;22654;51.054;3.654;2023-03-14T00:22:49;10.40;99.90
36660;DHT22;22654;51.054;3.654;2023-03-14T00:25:15;10.50;99.90
36660;DHT22;22654;51.054;3.654;2023-03-14T00:27:41;10.50;99.90
36660;DHT22;22654;51.054;3.654;2023-03-14T00:30:07;10.50;99.90
36660;DHT22;22654;51.054;3.654;2023-03-14T00:32:36;10.50;99.90
36660;DHT22;22654;51.054;3.654;2023-03-14T00:35:02;10.50;99.90
36660;DHT22;22654;51.054;3.654;2023-03-14T00:37:28;10.60;99.90
36660;DHT22;22654;51.054;3.654;2023-03-14T00:39:54;10.60;99.90
36660;DHT22;22654;51.054;3.654;2023-03-14T00:42:20;10.50;99.90
36660;DHT22;22654;51.054;3.654;2023-03-14T00:44:46;10.60;99.90
36660;DHT22;22654;51.054;3.654;2023-03-14T00:47:11;10.60;99.90
36660;DHT22;22654;51.054;3.654;2023-03-14T00:49:37;10.60;99.90
36660;DHT22;22654;51.054;3.654;2023-03-14T00:52:03;10.60;99.90
36660;DHT22;22654;51.054;3.654;2023-03-14T00:54:29;10.40;99.90
36660;DHT22;22654;51.054;3.654;2023-03-14T00:56:55;10.50;99.90
36660;DHT22;22654;51.054;3.654;2023-03-14T00:59:21;10.40;99.90
36660;DHT22;22654;51.054;3.654;2023-03-14T01:01:47;10.60;99.90
36660;DHT22;22654;51.054;3.654;2023-03-14T01:04:12;10.60;99.90
36660;DHT22;22654;51.054;3.654;2023-03-14T01:06:38;10.60;99.90
36660;DHT22;22654;51.054;3.654;2023-03-14T01:09:04;10.60;99.90
36660;DHT22;22654;51.054;3.654;2023-03-14T01:11:31;10.70;99.90
36660;DHT22;22654;51.054;3.654;2023-03-14T01:13:57;10.70;99.90
36660;DHT22;22654;51.054;3.654;2023-03-14T01:16:24;10.70;99.90
36660;DHT22;22654;51.054;3.654;2023-03-14T01:18:50;10.70;99.90
36660;DHT22;22654;51.054;3.654;2023-03-14T01:21:17;10.70;99.90
36660;DHT22;22654;51.054;3.654;2023-03-14T01:23:44;10.70;99.90
36660;DHT22;22654;51.054;3.654;2023-03-14T01:26:13;10.70;99.90
36660;DHT22;22654;51.054;3.654;2023-03-14T01:28:39;10.60;99.90
36660;DHT22;22654;51.054;3.654;2023-03-14T01:31:06;10.70;99.90
36660;DHT22;22654;51.054;3.654;2023-03-14T01:33:32;10.80;99.90
36660;DHT22;22654;51.054;3.654;2023-03-14T01:35:58;10.70;99.90
36660;DHT22;22654;51.054;3.654;2023-03-14T01:38:24;10.70;99.90
36660;DHT22;22654;51.054;3.654;2023-03-14T01:40:50;10.70;99.90
36660;DHT22;22654;51.054;3.654;2023-03-14T01:43:17;10.60;99.90
36660;DHT22;22654;51.054;3.654;2023-03-14T01:48:42;10.70;99.90
36660;DHT22;22654;51.054;3.654;2023-03-14T01:51:11;10.70;99.90
36660;DHT22;22654;51.054;3.654;2023-03-14T01:53:37;10.70;99.90
36660;DHT22;22654;51.054;3.654;2023-03-14T01:56:05;10.90;99.90
36660;DHT22;22654;51.054;3.654;2023-03-14T01:58:31;10.90;99.90
36660;DHT22;22654;51.054;3.654;2023-03-14T02:00:59;11.00;99.90
36660;DHT22;22654;51.054;3.654;2023-03-14T02:03:26;11.00;99.90
36660;DHT22;22654;51.054;3.654;2023-03-14T02:05:53;11.00;99.90
36660;DHT22;22654;51.054;3.654;2023-03-14T02:08:22;11.00;99.90
36660;DHT22;22654;51.054;3.654;2023-03-14T02:10:59;11.00;99.90
36660;DHT22;22654;51.054;3.654;2023-03-14T02:13:54;11.00;99.90
36660;DHT22;22654;51.054;3.654;2023-03-14T02:16:33;11.20;99.90
36660;DHT22;22654;51.054;3.654;2023-03-14T02:19:18;11.20;99.90
36660;DHT22;22654;51.054;3.654;2023-03-14T02:24:42;10.90;99.90
36660;DHT22;22654;51.054;3.654;2023-03-14T02:27:15;11.00;99.90
36660;DHT22;22654;51.054;3.654;2023-03-14T02:29:45;11.00;99.90
36660;DHT22;22654;51.054;3.654;2023-03-14T02:32:13;11.00;99.90
36660;DHT22;22654;51.054;3.654;2023-03-14T02:34:40;11.00;99.90
36660;DHT22;22654;51.054;3.654;2023-03-14T02:37:06;11.00;99.90
36660;DHT22;22654;51.054;3.654;2023-03-14T02:39:35;11.00;99.90
36660;DHT22;22654;51.054;3.654;2023-03-14T02:42:01;11.10;99.90
36660;DHT22;22654;51.054;3.654;2023-03-14T02:44:27;11.10;99.90
36660;DHT22;22654;51.054;3.654;2023-03-14T02:46:56;10.90;99.90
36660;DHT22;22654;51.054;3.654;2023-03-14T02:49:22;10.80;99.90
36660;DHT22;22654;51.054;3.654;2023-03-14T02:51:48;10.80;99.90
36660;DHT22;22654;51.054;3.654;2023-03-14T02:54:14;10.80;99.90
36660;DHT22;22654;51.054;3.654;2023-03-14T02:56:40;10.60;99.90
36660;DHT22;22654;51.054;3.654;2023-03-14T02:59:09;10.50;99.90
36660;DHT22;22654;51.054;3.654;2023-03-14T03:01:51;10.40;99.90
36660;DHT22;22654;51.054;3.654;2023-03-14T03:04:16;10.30;99.90
36660;DHT22;22654;51.054;3.654;2023-03-14T03:06:45;10.20;99.90
36660;DHT22;22654;51.054;3.654;2023-03-14T03:09:11;10.20;99.90
36660;DHT22;22654;51.054;3.654;2023-03-14T03:11:37;10.30;99.90
36660;DHT22;22654;51.054;3.654;2023-03-14T03:14:04;10.30;99.90
36660;DHT22;22654;51.054;3.654;2023-03-14T03:16:30;10.30;99.90
36660;DHT22;22654;51.054;3.654;2023-03-14T03:18:55;10.40;99.90
36660;DHT22;22654;51.054;3.654;2023-03-14T03:21:21;10.40;99.90
36660;DHT22;22654;51.054;3.654;2023-03-14T03:23:49;10.60;99.90
36660;DHT22;22654;51.054;3.654;2023-03-14T03:26:14;10.60;99.90
36660;DHT22;22654;51.054;3.654;2023-03-14T03:28:40;10.60;99.90
36660;DHT22;22654;51.054;3.654;2023-03-14T03:31:07;10.50;99.90
36660;DHT22;22654;51.054;3.654;2023-03-14T03:33:34;10.60;99.90
36660;DHT22;22654;51.054;3.654;2023-03-14T03:36:01;10.50;99.90
36660;DHT22;22654;51.054;3.654;2023-03-14T03:38:31;10.60;99.90
36660;DHT22;22654;51.054;3.654;2023-03-14T03:41:02;10.70;99.90
36660;DHT22;22654;51.054;3.654;2023-03-14T03:43:27;10.80;99.90
36660;DHT22;22654;51.054;3.654;2023-03-14T03:45:53;10.90;99.90
36660;DHT22;22654;51.054;3.654;2023-03-14T03:48:22;10.90;99.90
36660;DHT22;22654;51.054;3.654;2023-03-14T03:50:48;10.80;99.90
36660;DHT22;22654;51.054;3.654;2023-03-14T03:53:17;10.80;99.90
36660;DHT22;22654;51.054;3.654;2023-03-14T03:55:43;11.00;99.90
36660;DHT22;22654;51.054;3.654;2023-03-14T03:58:10;11.00;99.90
36660;DHT22;22654;51.054;3.654;2023-03-14T04:00:35;11.10;99.90
36660;DHT22;22654;51.054;3.654;2023-03-14T04:03:01;11.10;99.90
36660;DHT22;22654;51.054;3.654;2023-03-14T04:05:30;11.10;99.90
36660;DHT22;22654;51.054;3.654;2023-03-14T04:08:01;11.10;99.90
36660;DHT22;22654;51.054;3.654;2023-03-14T04:10:29;11.00;99.90
36660;DHT22;22654;51.054;3.654;2023-03-14T04:13:17;11.00;99.90
36660;DHT22;22654;51.054;3.654;2023-03-14T04:15:48;11.10;99.90
36660;DHT22;22654;51.054;3.654;2023-03-14T04:18:19;11.00;99.90
36660;DHT22;22654;51.054;3.654;2023-03-14T04:20:50;11.10;99.90
36660;DHT22;22654;51.054;3.654;2023-03-14T04:23:16;11.10;99.90
36660;DHT22;22654;51.054;3.654;2023-03-14T04:25:42;11.10;99.90
36660;DHT22;22654;51.054;3.654;2023-03-14T04:28:08;11.10;99.90
36660;DHT22;22654;51.054;3.654;2023-03-14T04:30:33;11.20;99.90
36660;DHT22;22654;51.054;3.654;2023-03-14T04:33:12;11.10;99.90
36660;DHT22;22654;51.054;3.654;2023-03-14T04:35:46;11.00;99.90
36660;DHT22;22654;51.054;3.654;2023-03-14T04:38:14;11.00;99.90
36660;DHT22;22654;51.054;3.654;2023-03-14T04:40:43;11.00;99.90
36660;DHT22;22654;51.054;3.654;2023-03-14T04:43:10;11.10;99.90
36660;DHT22;22654;51.054;3.654;2023-03-14T04:45:42;11.00;99.90
36660;DHT22;22654;51.054;3.654;2023-03-14T04:48:09;11.00;99.90
36660;DHT22;22654;51.054;3.654;2023-03-14T04:50:35;11.20;99.90
36660;DHT22;22654;51.054;3.654;2023-03-14T04:53:01;11.20;99.90
36660;DHT22;22654;51.054;3.654;2023-03-14T04:55:31;11.20;99.90
36660;DHT22;22654;51.054;3.654;2023-03-14T04:57:58;11.20;99.90
36660;DHT22;22654;51.054;3.654;2023-03-14T05:00:24;11.30;99.90
36660;DHT22;22654;51.054;3.654;2023-03-14T05:03:00;11.30;99.90
36660;DHT22;22654;51.054;3.654;2023-03-14T05:05:45;11.20;99.90
36660;DHT22;22654;51.054;3.654;2023-03-14T05:08:11;11.30;99.90
36660;DHT22;22654;51.054;3.654;2023-03-14T05:10:50;11.30;99.90
36660;DHT22;22654;51.054;3.654;2023-03-14T05:13:48;11.20;99.90
36660;DHT22;22654;51.054;3.654;2023-03-14T05:16:32;11.10;99.90
36660;DHT22;22654;51.054;3.654;2023-03-14T05:19:21;11.10;99.90
36660;DHT22;22654;51.054;3.654;2023-03-14T05:22:11;11.10;99.90
36660;DHT22;22654;51.054;3.654;2023-03-14T05:25:15;11.10;99.90
36660;DHT22;22654;51.054;3.654;2023-03-14T05:27:44;10.90;99.90
36660;DHT22;22654;51.054;3.654;2023-03-14T05:30:29;10.90;99.90
36660;DHT22;22654;51.054;3.654;2023-03-14T05:33:14;10.90;99.90
36660;DHT22;22654;51.054;3.654;2023-03-14T05:35:55;10.80;99.90
36660;DHT22;22654;51.054;3.654;2023-03-14T05:38:37;10.70;99.90
36660;DHT22;22654;51.054;3.654;2023-03-14T05:41:26;10.80;99.90
36660;DHT22;22654;51.054;3.654;2023-03-14T05:44:16;10.40;99.90
36660;DHT22;22654;51.054;3.654;2023-03-14T05:47:03;9.70;99.90
36660;DHT22;22654;51.054;3.654;2023-03-14T05:49:46;9.50;99.90
36660;DHT22;22654;51.054;3.654;2023-03-14T05:52:35;9.40;99.90
36660;DHT22;22654;51.054;3.654;2023-03-14T05:55:07;9.10;99.90
36660;DHT22;22654;51.054;3.654;2023-03-14T05:57:35;8.90;99.90
36660;DHT22;22654;51.054;3.654;2023-03-14T06:00:21;8.90;99.90
36660;DHT22;22654;51.054;3.654;2023-03-14T06:02:59;8.70;99.90
36660;DHT22;22654;51.054;3.654;2023-03-14T06:05:30;8.60;99.90
36660;DHT22;22654;51.054;3.654;2023-03-14T06:07:59;8.50;99.90
36660;DHT22;22654;51.054;3.654;2023-03-14T06:10:27;8.30;99.90
36660;DHT22;22654;51.054;3.654;2023-03-14T06:12:53;8.30;99.90
36660;DHT22;22654;51.054;3.654;2023-03-14T06:15:20;8.20;99.90
36660;DHT22;22654;51.054;3.654;2023-03-14T06:17:48;8.20;99.90
36660;DHT22;22654;51.054;3.654;2023-03-14T06:20:17;8.10;99.90
36660;DHT22;22654;51.054;3.654;2023-03-14T06:22:43;8.10;99.90
36660;DHT22;22654;51.054;3.654;2023-03-14T06:25:10;8.00;99.90
36660;DHT22;22654;51.054;3.654;2023-03-14T06:27:36;8.00;99.90
36660;DHT22;22654;51.054;3.654;2023-03-14T06:30:02;8.00;99.90
36660;DHT22;22654;51.054;3.654;2023-03-14T06:32:30;8.00;99.90
36660;DHT22;22654;51.054;3.654;2023-03-14T06:35:00;8.00;99.90
36660;DHT22;22654;51.054;3.654;2023-03-14T06:37:27;8.00;99.90
36660;DHT22;22654;51.054;3.654;2023-03-14T06:39:54;8.10;99.90
36660;DHT22;22654;51.054;3.654;2023-03-14T06:42:38;8.20;99.90
36660;DHT22;22654;51.054;3.654;2023-03-14T06:45:04;8.10;99.90
36660;DHT22;22654;51.054;3.654;2023-03-14T06:47:30;8.10;99.90
36660;DHT22;22654;51.054;3.654;2023-03-14T06:49:56;8.10;99.90
36660;DHT22;22654;51.054;3.654;2023-03-14T06:52:22;8.10;99.90
36660;DHT22;22654;51.054;3.654;2023-03-14T06:54:48;8.10;99.90
36660;DHT22;22654;51.054;3.654;2023-03-14T06:57:14;8.20;99.90
36660;DHT22;22654;51.054;3.654;2023-03-14T06:59:46;8.20;99.90
36660;DHT22;22654;51.054;3.654;2023-03-14T07:02:12;8.30;99.90
36660;DHT22;22654;51.054;3.654;2023-03-14T07:04:39;8.20;99.90
36660;DHT22;22654;51.054;3.654;2023-03-14T07:07:05;8.10;99.90
36660;DHT22;22654;51.054;3.654;2023-03-14T07:09:33;8.10;99.90
36660;DHT22;22654;51.054;3.654;2023-03-14T07:12:00;8.20;99.90
36660;DHT22;22654;51.054;3.654;2023-03-14T07:14:29;8.10;99.90
36660;DHT22;22654;51.054;3.654;2023-03-14T07:16:54;8.10;99.90
36660;DHT22;22654;51.054;3.654;2023-03-14T07:19:20;8.10;99.90
36660;DHT22;22654;51.054;3.654;2023-03-14T07:21:46;8.00;99.90
36660;DHT22;22654;51.054;3.654;2023-03-14T07:24:18;8.10;99.90
36660;DHT22;22654;51.054;3.654;2023-03-14T07:26:44;8.20;99.90
36660;DHT22;22654;51.054;3.654;2023-03-14T07:29:10;8.20;99.90
36660;DHT22;22654;51.054;3.654;2023-03-14T07:31:37;8.30;99.90
36660;DHT22;22654;51.054;3.654;2023-03-14T07:34:03;8.20;99.90
36660;DHT22;22654;51.054;3.654;2023-03-14T07:36:33;8.30;99.90
36660;DHT22;22654;51.054;3.654;2023-03-14T07:38:59;8.20;99.90
36660;DHT22;22654;51.054;3.654;2023-03-14T07:41:25;8.00;99.90
36660;DHT22;22654;51.054;3.654;2023-03-14T07:44:21;7.90;99.90
36660;DHT22;22654;51.054;3.654;2023-03-14T07:46:46;7.90;99.90
36660;DHT22;22654;51.054;3.654;2023-03-14T07:49:12;7.90;99.90
36660;DHT22;22654;51.054;3.654;2023-03-14T07:51:38;7.90;99.90
36660;DHT22;22654;51.054;3.654;2023-03-14T07:54:04;7.80;99.90
36660;DHT22;22654;51.054;3.654;2023-03-14T07:56:29;7.90;99.90
36660;DHT22;22654;51.054;3.654;2023-03-14T07:58:56;7.90;99.90
36660;DHT22;22654;51.054;3.654;2023-03-14T08:01:22;7.90;99.90
36660;DHT22;22654;51.054;3.654;2023-03-14T08:03:48;7.80;99.90
36660;DHT22;22654;51.054;3.654;2023-03-14T08:06:14;7.90;99.90
36660;DHT22;22654;51.054;3.654;2023-03-14T08:08:39;8.00;99.90
36660;DHT22;22654;51.054;3.654;2023-03-14T08:11:05;7.90;99.90
36660;DHT22;22654;51.054;3.654;2023-03-14T08:13:34;7.90;99.90
36660;DHT22;22654;51.054;3.654;2023-03-14T08:16:00;7.90;99.90
36660;DHT22;22654;51.054;3.654;2023-03-14T08:18:25;7.80;99.90
36660;DHT22;22654;51.054;3.654;2023-03-14T08:20:51;7.80;99.90
36660;DHT22;22654;51.054;3.654;2023-03-14T08:23:17;7.80;99.90
36660;DHT22;22654;51.054;3.654;2023-03-14T08:25:43;7.80;99.90
36660;DHT22;22654;51.054;3.654;2023-03-14T08:28:08;7.90;99.90
36660;DHT22;22654;51.054;3.654;2023-03-14T08:30:34;7.80;99.90
36660;DHT22;22654;51.054;3.654;2023-03-14T08:33:00;7.90;99.90
36660;DHT22;22654;51.054;3.654;2023-03-14T08:35:26;8.00;99.90
36660;DHT22;22654;51.054;3.654;2023-03-14T08:37:52;8.00;99.90
36660;DHT22;22654;51.054;3.654;2023-03-14T08:40:18;8.10;99.90
36660;DHT22;22654;51.054;3.654;2023-03-14T08:42:44;8.30;99.90
36660;DHT22;22654;51.054;3.654;2023-03-14T08:45:11;8.40;99.90
36660;DHT22;22654;51.054;3.654;2023-03-14T08:47:37;8.30;99.90
36660;DHT22;22654;51.054;3.654;2023-03-14T08:50:03;8.20;99.90
36660;DHT22;22654;51.054;3.654;2023-03-14T08:52:30;8.10;99.90
36660;DHT22;22654;51.054;3.654;2023-03-14T08:54:56;8.10;99.90
36660;DHT22;22654;51.054;3.654;2023-03-14T08:57:22;8.10;99.90
36660;DHT22;22654;51.054;3.654;2023-03-14T08:59:56;8.10;99.90
36660;DHT22;22654;51.054;3.654;2023-03-14T09:02:23;8.10;99.90
36660;DHT22;22654;51.054;3.654;2023-03-14T09:04:49;8.00;99.90
36660;DHT22;22654;51.054;3.654;2023-03-14T09:07:19;8.10;99.90
36660;DHT22;22654;51.054;3.654;2023-03-14T09:09:45;8.10;99.90
36660;DHT22;22654;51.054;3.654;2023-03-14T09:12:10;8.10;99.90
36660;DHT22;22654;51.054;3.654;2023-03-14T09:14:36;7.90;99.90
36660;DHT22;22654;51.054;3.654;2023-03-14T09:17:05;7.90;99.90
36660;DHT22;22654;51.054;3.654;2023-03-14T09:19:31;7.90;99.90
36660;DHT22;22654;51.054;3.654;2023-03-14T09:21:57;8.00;99.90
36660;DHT22;22654;51.054;3.654;2023-03-14T09:24:22;8.10;99.90
36660;DHT22;22654;51.054;3.654;2023-03-14T09:26:48;8.00;99.90
36660;DHT22;22654;51.054;3.654;2023-03-14T09:29:14;7.90;99.90
36660;DHT22;22654;51.054;3.654;2023-03-14T09:31:40;8.00;99.90
36660;DHT22;22654;51.054;3.654;2023-03-14T09:34:05;8.00;99.90
36660;DHT22;22654;51.054;3.654;2023-03-14T09:36:31;8.00;99.90
36660;DHT22;22654;51.054;3.654;2023-03-14T09:38:57;8.10;99.90
36660;DHT22;22654;51.054;3.654;2023-03-14T09:41:36;8.10;99.90
36660;DHT22;22654;51.054;3.654;2023-03-14T09:46:35;8.00;99.90
36660;DHT22;22654;51.054;3.654;2023-03-14T09:49:02;8.00;99.90
36660;DHT22;22654;51.054;3.654;2023-03-14T09:51:28;7.90;99.90
36660;DHT22;22654;51.054;3.654;2023-03-14T09:53:54;7.90;99.90
36660;DHT22;22654;51.054;3.654;2023-03-14T09:56:24;7.90;99.90
36660;DHT22;22654;51.054;3.654;2023-03-14T09:58:55;7.90;99.90
36660;DHT22;22654;51.054;3.654;2023-03-14T10:01:26;7.90;99.90
36660;DHT22;22654;51.054;3.654;2023-03-14T10:03:53;7.80;99.90
36660;DHT22;22654;51.054;3.654;2023-03-14T10:06:19;7.80;99.90
36660;DHT22;22654;51.054;3.654;2023-03-14T10:08:47;7.70;99.90
36660;DHT22;22654;51.054;3.654;2023-03-14T10:11:14;7.50;99.90
36660;DHT22;22654;51.054;3.654;2023-03-14T10:16:28;7.50;99.90
36660;DHT22;22654;51.054;3.654;2023-03-14T10:18:54;7.40;99.90
36660;DHT22;22654;51.054;3.654;2023-03-14T10:21:27;7.40;99.90
36660;DHT22;22654;51.054;3.654;2023-03-14T10:23:53;7.30;99.90
36660;DHT22;22654;51.054;3.654;2023-03-14T10:26:28;7.40;99.90
36660;DHT22;22654;51.054;3.654;2023-03-14T10:29:03;7.40;99.90
36660;DHT22;22654;51.054;3.654;2023-03-14T10:34:21;7.20;99.90
36660;DHT22;22654;51.054;3.654;2023-03-14T10:36:51;7.10;99.90
36660;DHT22;22654;51.054;3.654;2023-03-14T10:41:50;7.10;99.90
36660;DHT22;22654;51.054;3.654;2023-03-14T10:44:19;7.10;99.90
36660;DHT22;22654;51.054;3.654;2023-03-14T10:46:47;7.20;99.90
36660;DHT22;22654;51.054;3.654;2023-03-14T10:49:29;7.10;99.90
36660;DHT22;22654;51.054;3.654;2023-03-14T10:51:55;7.00;99.90
36660;DHT22;22654;51.054;3.654;2023-03-14T10:54:29;7.10;99.90
36660;DHT22;22654;51.054;3.654;2023-03-14T10:56:58;7.20;99.90
36660;DHT22;22654;51.054;3.654;2023-03-14T10:59:24;7.30;99.90
36660;DHT22;22654;51.054;3.654;2023-03-14T11:02:04;7.60;99.90
36660;DHT22;22654;51.054;3.654;2023-03-14T11:07:09;8.00;99.90
36660;DHT22;22654;51.054;3.654;2023-03-14T11:14:48;8.70;99.90
36660;DHT22;22654;51.054;3.654;2023-03-14T11:17:30;9.20;99.90
36660;DHT22;22654;51.054;3.654;2023-03-14T11:27:40;10.70;99.90
36660;DHT22;22654;51.054;3.654;2023-03-14T11:41:13;10.10;99.90
36660;DHT22;22654;51.054;3.654;2023-03-14T11:43:40;10.10;99.90
36660;DHT22;22654;51.054;3.654;2023-03-14T11:46:09;10.20;99.90
36660;DHT22;22654;51.054;3.654;2023-03-14T11:51:07;8.20;99.90
36660;DHT22;22654;51.054;3.654;2023-03-14T11:56:03;7.20;99.90
36660;DHT22;22654;51.054;3.654;2023-03-14T11:58:31;7.00;99.90
36660;DHT22;22654;51.054;3.654;2023-03-14T12:01:00;7.00;99.90
36660;DHT22;22654;51.054;3.654;2023-03-14T12:06:13;7.20;99.90
36660;DHT22;22654;51.054;3.654;2023-03-14T12:08:43;7.30;99.90
36660;DHT22;22654;51.054;3.654;2023-03-14T12:13:46;7.30;99.90
36660;DHT22;22654;51.054;3.654;2023-03-14T12:16:33;6.80;99.90
36660;DHT22;22654;51.054;3.654;2023-03-14T12:19:05;6.60;99.90
36660;DHT22;22654;51.054;3.654;2023-03-14T12:21:51;6.50;99.90
36660;DHT22;22654;51.054;3.654;2023-03-14T12:24:18;6.30;99.90
36660;DHT22;22654;51.054;3.654;2023-03-14T12:26:50;6.40;99.90
36660;DHT22;22654;51.054;3.654;2023-03-14T12:29:17;6.50;99.90
36660;DHT22;22654;51.054;3.654;2023-03-14T12:32:05;6.70;99.90
36660;DHT22;22654;51.054;3.654;2023-03-14T12:34:42;6.70;99.90
36660;DHT22;22654;51.054;3.654;2023-03-14T12:39:43;6.80;99.90
36660;DHT22;22654;51.054;3.654;2023-03-14T12:48:01;6.10;99.90
36660;DHT22;22654;51.054;3.654;2023-03-14T12:50:33;5.50;99.90
36660;DHT22;22654;51.054;3.654;2023-03-14T12:55:39;5.40;99.90
36660;DHT22;22654;51.054;3.654;2023-03-14T13:00:40;5.40;99.90
36660;DHT22;22654;51.054;3.654;2023-03-14T13:03:20;5.20;99.90
36660;DHT22;22654;51.054;3.654;2023-03-14T13:11:05;5.40;99.90
36660;DHT22;22654;51.054;3.654;2023-03-14T13:13:31;5.60;99.90
36660;DHT22;22654;51.054;3.654;2023-03-14T13:15:59;5.90;99.90
36660;DHT22;22654;51.054;3.654;2023-03-14T13:21:40;6.30;99.90
36660;DHT22;22654;51.054;3.654;2023-03-14T13:26:35;6.30;99.90
36660;DHT22;22654;51.054;3.654;2023-03-14T13:29:08;6.20;99.90
36660;DHT22;22654;51.054;3.654;2023-03-14T13:31:34;6.30;99.90
36660;DHT22;22654;51.054;3.654;2023-03-14T13:34:00;6.40;99.90
36660;DHT22;22654;51.054;3.654;2023-03-14T13:36:27;6.50;99.90
36660;DHT22;22654;51.054;3.654;2023-03-14T13:38:57;6.70;99.90
36660;DHT22;22654;51.054;3.654;2023-03-14T13:41:23;6.80;99.90
36660;DHT22;22654;51.054;3.654;2023-03-14T13:43:49;6.90;99.90
36660;DHT22;22654;51.054;3.654;2023-03-14T13:46:16;6.90;99.90
36660;DHT22;22654;51.054;3.654;2023-03-14T13:48:44;6.80;99.90
36660;DHT22;22654;51.054;3.654;2023-03-14T13:51:10;6.50;99.90
36660;DHT22;22654;51.054;3.654;2023-03-14T13:56:12;5.80;99.90
36660;DHT22;22654;51.054;3.654;2023-03-14T13:58:39;5.80;99.90
36660;DHT22;22654;51.054;3.654;2023-03-14T14:01:06;5.70;99.90
36660;DHT22;22654;51.054;3.654;2023-03-14T14:03:37;5.50;99.90
36660;DHT22;22654;51.054;3.654;2023-03-14T14:06:03;5.60;99.90
36660;DHT22;22654;51.054;3.654;2023-03-14T14:08:29;5.60;99.90
36660;DHT22;22654;51.054;3.654;2023-03-14T14:10:57;5.70;99.90
36660;DHT22;22654;51.054;3.654;2023-03-14T14:13:24;5.90;99.90
36660;DHT22;22654;51.054;3.654;2023-03-14T14:15:51;5.90;99.90
36660;DHT22;22654;51.054;3.654;2023-03-14T14:18:18;6.00;99.90
36660;DHT22;22654;51.054;3.654;2023-03-14T14:20:46;6.20;99.90
36660;DHT22;22654;51.054;3.654;2023-03-14T14:23:13;6.40;99.90
36660;DHT22;22654;51.054;3.654;2023-03-14T14:25:40;6.70;99.90
36660;DHT22;22654;51.054;3.654;2023-03-14T14:28:28;6.90;99.90
36660;DHT22;22654;51.054;3.654;2023-03-14T14:31:01;7.10;99.90
36660;DHT22;22654;51.054;3.654;2023-03-14T14:33:27;7.30;99.90
36660;DHT22;22654;51.054;3.654;2023-03-14T14:35:57;7.30;99.90
36660;DHT22;22654;51.054;3.654;2023-03-14T14:38:24;7.30;99.90
36660;DHT22;22654;51.054;3.654;2023-03-14T14:40:54;7.30;99.90
36660;DHT22;22654;51.054;3.654;2023-03-14T14:43:22;7.40;99.90
36660;DHT22;22654;51.054;3.654;2023-03-14T14:45:49;7.30;99.90
36660;DHT22;22654;51.054;3.654;2023-03-14T14:48:17;7.20;99.90
36660;DHT22;22654;51.054;3.654;2023-03-14T14:53:21;7.20;99.90
36660;DHT22;22654;51.054;3.654;2023-03-14T14:55:49;7.10;99.90
36660;DHT22;22654;51.054;3.654;2023-03-14T15:00:49;7.20;99.90
36660;DHT22;22654;51.054;3.654;2023-03-14T15:03:20;7.20;99.90
36660;DHT22;22654;51.054;3.654;2023-03-14T15:05:46;7.40;99.90
36660;DHT22;22654;51.054;3.654;2023-03-14T15:08:11;7.50;99.90
36660;DHT22;22654;51.054;3.654;2023-03-14T15:10:37;7.60;99.90
36660;DHT22;22654;51.054;3.654;2023-03-14T15:13:03;7.60;99.90
36660;DHT22;22654;51.054;3.654;2023-03-14T15:15:29;7.90;99.90
36660;DHT22;22654;51.054;3.654;2023-03-14T15:17:55;7.90;99.90
36660;DHT22;22654;51.054;3.654;2023-03-14T15:20:20;8.00;99.90
36660;DHT22;22654;51.054;3.654;2023-03-14T15:22:49;8.10;99.90
36660;DHT22;22654;51.054;3.654;2023-03-14T15:25:15;8.10;99.90
36660;DHT22;22654;51.054;3.654;2023-03-14T15:27:40;8.30;99.90
36660;DHT22;22654;51.054;3.654;2023-03-14T15:30:12;8.30;99.90
36660;DHT22;22654;51.054;3.654;2023-03-14T15:32:38;8.40;99.90
36660;DHT22;22654;51.054;3.654;2023-03-14T15:35:03;8.60;99.90
36660;DHT22;22654;51.054;3.654;2023-03-14T15:37:29;8.60;99.90
36660;DHT22;22654;51.054;3.654;2023-03-14T15:39:56;8.70;99.90
36660;DHT22;22654;51.054;3.654;2023-03-14T15:42:23;8.70;99.90
36660;DHT22;22654;51.054;3.654;2023-03-14T15:44:49;8.70;99.90
36660;DHT22;22654;51.054;3.654;2023-03-14T15:47:15;9.00;99.90
36660;DHT22;22654;51.054;3.654;2023-03-14T15:49:41;9.20;99.90
36660;DHT22;22654;51.054;3.654;2023-03-14T15:52:06;9.30;99.90
36660;DHT22;22654;51.054;3.654;2023-03-14T15:54:33;9.30;99.90
36660;DHT22;22654;51.054;3.654;2023-03-14T15:56:59;9.20;99.90
36660;DHT22;22654;51.054;3.654;2023-03-14T15:59:25;9.20;99.90
36660;DHT22;22654;51.054;3.654;2023-03-14T16:01:51;9.30;99.90
36660;DHT22;22654;51.054;3.654;2023-03-14T16:04:17;9.30;99.90
36660;DHT22;22654;51.054;3.654;2023-03-14T16:06:43;9.20;99.90
36660;DHT22;22654;51.054;3.654;2023-03-14T16:09:10;9.10;99.90
36660;DHT22;22654;51.054;3.654;2023-03-14T16:11:36;8.90;99.90
36660;DHT22;22654;51.054;3.654;2023-03-14T16:14:01;9.00;99.90
36660;DHT22;22654;51.054;3.654;2023-03-14T16:16:27;8.60;99.90
36660;DHT22;22654;51.054;3.654;2023-03-14T16:18:53;8.30;99.90
36660;DHT22;22654;51.054;3.654;2023-03-14T16:21:19;8.30;99.90
36660;DHT22;22654;51.054;3.654;2023-03-14T16:23:45;8.20;99.90
36660;DHT22;22654;51.054;3.654;2023-03-14T16:26:12;8.30;99.90
36660;DHT22;22654;51.054;3.654;2023-03-14T16:28:38;8.20;99.90
36660;DHT22;22654;51.054;3.654;2023-03-14T16:31:05;8.30;99.90
36660;DHT22;22654;51.054;3.654;2023-03-14T16:33:32;8.50;99.90
36660;DHT22;22654;51.054;3.654;2023-03-14T16:35:59;8.50;99.90
36660;DHT22;22654;51.054;3.654;2023-03-14T16:38:26;8.40;99.90
36660;DHT22;22654;51.054;3.654;2023-03-14T16:40:55;8.30;99.90
36660;DHT22;22654;51.054;3.654;2023-03-14T16:43:21;8.30;99.90
36660;DHT22;22654;51.054;3.654;2023-03-14T16:45:48;8.30;99.90
36660;DHT22;22654;51.054;3.654;2023-03-14T16:48:14;8.40;99.90
36660;DHT22;22654;51.054;3.654;2023-03-14T16:50:40;8.30;99.90
36660;DHT22;22654;51.054;3.654;2023-03-14T16:53:06;8.10;99.90
36660;DHT22;22654;51.054;3.654;2023-03-14T16:55:32;8.10;99.90
36660;DHT22;22654;51.054;3.654;2023-03-14T16:57:57;8.00;99.90
36660;DHT22;22654;51.054;3.654;2023-03-14T17:00:23;8.10;99.90
36660;DHT22;22654;51.054;3.654;2023-03-14T17:02:49;7.90;99.90
36660;DHT22;22654;51.054;3.654;2023-03-14T17:05:14;8.10;99.90
36660;DHT22;22654;51.054;3.654;2023-03-14T17:07:40;8.30;99.90
36660;DHT22;22654;51.054;3.654;2023-03-14T17:10:06;8.30;99.90
36660;DHT22;22654;51.054;3.654;2023-03-14T17:12:32;8.20;99.90
36660;DHT22;22654;51.054;3.654;2023-03-14T17:15:00;8.20;99.90